createdAt,value
2018-05-25T00:00:38.771Z,14.40
2018-05-25T00:01:38.761Z,15.60
2018-05-25T00:02:38.756Z,15.50
2018-05-25T00:03:38.752Z,14.80
2018-05-25T00:04:38.755Z,14.40
2018-05-25T00:05:38.748Z,15.20
2018-05-25T00:06:38.742Z,13.90
2018-05-25T00:07:38.737Z,15.20
2018-05-25T00:08:38.729Z,14.90
2018-05-25T00:09:38.727Z,14.90
2018-05-25T00:10:38.718Z,15.40
2018-05-25T00:11:38.717Z,15.70
2018-05-25T00:12:38.709Z,15.10
2018-05-25T00:13:38.708Z,15.40
2018-05-25T00:14:38.704Z,15.90
2018-05-25T00:15:38.697Z,15.20
2018-05-25T00:16:38.690Z,14.50
2018-05-25T00:17:38.690Z,15.70
2018-05-25T00:18:38.686Z,15.90
2018-05-25T00:19:38.675Z,15.20
2018-05-25T00:20:38.675Z,15.00
2018-05-25T00:21:38.673Z,14.90
2018-05-25T00:22:38.663Z,15.20
2018-05-25T00:23:38.660Z,15.80
2018-05-25T00:24:38.660Z,15.70
2018-05-25T00:25:38.651Z,16.40
2018-05-25T00:26:38.651Z,15.90
2018-05-25T00:27:38.644Z,16.10
2018-05-25T00:28:38.637Z,16.10
2018-05-25T00:29:38.633Z,15.40
2018-05-25T00:30:38.631Z,15.60
2018-05-25T00:31:38.661Z,16.40
2018-05-25T00:32:38.621Z,15.70
2018-05-25T00:33:38.616Z,15.20
2018-05-25T00:34:38.608Z,15.80
2018-05-25T00:35:38.605Z,15.40
2018-05-25T00:36:38.599Z,16.00
2018-05-25T00:37:38.593Z,16.20
2018-05-25T00:38:38.588Z,16.50
2018-05-25T00:39:38.583Z,15.50
2018-05-25T00:40:38.580Z,14.80
2018-05-25T00:41:38.577Z,16.60
2018-05-25T00:42:38.571Z,16.30
2018-05-25T00:43:38.565Z,16.20
2018-05-25T00:44:38.587Z,15.80
2018-05-25T00:45:38.556Z,15.80
2018-05-25T00:46:38.548Z,15.30
2018-05-25T00:47:38.548Z,16.10
2018-05-25T00:48:38.562Z,16.40
2018-05-25T00:49:38.564Z,16.90
2018-05-25T00:50:38.532Z,15.90
2018-05-25T00:51:38.532Z,16.40
2018-05-25T00:52:38.522Z,16.20
2018-05-25T00:53:38.520Z,15.50
2018-05-25T00:54:38.518Z,14.70
2018-05-25T00:55:38.510Z,15.60
2018-05-25T00:56:38.505Z,16.50
2018-05-25T00:57:38.513Z,15.70
2018-05-25T00:58:38.494Z,15.20
2018-05-25T00:59:38.492Z,14.80
2018-05-25T01:00:38.489Z,14.80
2018-05-25T01:01:38.489Z,15.40
2018-05-25T01:02:38.474Z,15.20
2018-05-25T01:03:38.470Z,15.40
2018-05-25T01:04:38.466Z,15.80
2018-05-25T01:05:38.470Z,15.50
2018-05-25T01:06:38.457Z,15.60
2018-05-25T01:07:38.452Z,15.50
2018-05-25T01:08:38.449Z,15.80
2018-05-25T01:09:38.443Z,15.30
2018-05-25T01:10:38.436Z,15.10
2018-05-25T01:11:38.438Z,15.80
2018-05-25T01:12:38.426Z,15.90
2018-05-25T01:13:38.419Z,16.60
2018-05-25T01:14:38.417Z,16.50
2018-05-25T01:15:38.416Z,15.90
2018-05-25T01:16:38.411Z,16.40
2018-05-25T01:17:38.405Z,17.00
2018-05-25T01:18:38.396Z,16.60
2018-05-25T01:19:38.394Z,18.00
2018-05-25T01:20:38.387Z,18.00
2018-05-25T01:21:38.381Z,18.00
2018-05-25T01:22:38.380Z,17.60
2018-05-25T01:23:38.372Z,17.60
2018-05-25T01:24:38.378Z,17.60
2018-05-25T01:25:38.363Z,19.20
2018-05-25T01:26:38.357Z,18.80
2018-05-25T01:27:38.356Z,17.50
2018-05-25T01:28:38.351Z,18.20
2018-05-25T01:29:38.348Z,19.30
2018-05-25T01:30:38.340Z,18.80
2018-05-25T01:31:38.332Z,19.40
2018-05-25T01:32:38.330Z,19.20
2018-05-25T01:33:38.325Z,18.40
2018-05-25T01:34:38.322Z,19.60
2018-05-25T01:35:38.332Z,19.40
2018-05-25T01:36:38.312Z,18.80
2018-05-25T01:37:38.312Z,19.40
2018-05-25T01:38:38.295Z,19.70
2018-05-25T01:39:38.293Z,19.30
2018-05-25T01:40:38.290Z,19.20
2018-05-25T01:41:38.289Z,19.40
2018-05-25T01:42:38.281Z,19.40
2018-05-25T01:43:38.276Z,19.40
2018-05-25T01:44:38.268Z,19.10
2018-05-25T01:45:38.262Z,20.40
2018-05-25T01:46:38.271Z,19.20
2018-05-25T01:47:38.256Z,19.50
2018-05-25T01:48:38.250Z,20.00
2018-05-25T01:49:38.244Z,19.40
2018-05-25T01:50:38.241Z,19.00
2018-05-25T01:51:38.238Z,18.50
2018-05-25T01:52:38.228Z,18.50
2018-05-25T01:53:38.222Z,19.20
2018-05-25T01:54:38.219Z,18.70
2018-05-25T01:55:38.215Z,19.30
2018-05-25T01:56:38.210Z,18.50
2018-05-25T01:57:38.207Z,19.40
2018-05-25T01:58:38.206Z,19.40
2018-05-25T01:59:38.212Z,20.10
2018-05-25T02:00:38.192Z,19.20
2018-05-25T02:01:38.192Z,18.90
2018-05-25T02:02:38.177Z,20.10
2018-05-25T02:03:38.182Z,19.60
2018-05-25T02:04:38.167Z,19.90
2018-05-25T02:05:38.161Z,19.60
2018-05-25T02:06:38.155Z,19.30
2018-05-25T02:07:38.153Z,19.50
2018-05-25T02:08:38.159Z,19.40
2018-05-25T02:09:38.148Z,18.80
2018-05-25T02:10:38.143Z,20.30
2018-05-25T02:11:38.141Z,20.10
2018-05-25T02:12:38.124Z,19.90
2018-05-25T02:13:38.125Z,19.40
2018-05-25T02:14:38.115Z,19.70
2018-05-25T02:15:38.112Z,20.00
2018-05-25T02:16:38.108Z,19.30
2018-05-25T02:17:38.099Z,19.40
2018-05-25T02:18:38.095Z,18.80
2018-05-25T02:19:38.095Z,19.50
2018-05-25T02:20:38.087Z,19.30
2018-05-25T02:21:38.082Z,20.70
2018-05-25T02:22:38.077Z,19.50
2018-05-25T02:23:38.070Z,20.40
2018-05-25T02:24:38.072Z,19.90
2018-05-25T02:25:38.061Z,19.90
2018-05-25T02:26:38.054Z,19.60
2018-05-25T02:27:38.052Z,20.00
2018-05-25T02:28:38.046Z,19.70
2018-05-25T02:29:38.044Z,19.70
2018-05-25T02:30:38.041Z,19.70
2018-05-25T02:31:38.033Z,19.80
2018-05-25T02:32:38.036Z,18.90
2018-05-25T02:33:38.034Z,19.70
2018-05-25T02:34:38.016Z,20.10
2018-05-25T02:35:38.008Z,20.20
2018-05-25T02:36:38.006Z,20.10
2018-05-25T02:37:38.004Z,19.40
2018-05-25T02:38:38.046Z,19.50
2018-05-25T02:39:37.991Z,19.90
2018-05-25T02:40:37.981Z,20.30
2018-05-25T02:41:37.976Z,19.70
2018-05-25T02:42:37.995Z,20.20
2018-05-25T02:43:37.971Z,19.10
2018-05-25T02:44:37.970Z,20.40
2018-05-25T02:45:37.961Z,20.80
2018-05-25T02:46:37.949Z,20.20
2018-05-25T02:47:37.950Z,20.30
2018-05-25T02:48:37.944Z,20.40
2018-05-25T02:49:37.964Z,20.10
2018-05-25T02:50:37.933Z,20.60
2018-05-25T02:51:37.943Z,21.30
2018-05-25T02:52:37.926Z,20.70
2018-05-25T02:53:37.919Z,21.90
2018-05-25T02:54:37.908Z,20.40
2018-05-25T02:55:37.906Z,20.40
2018-05-25T02:56:37.903Z,21.30
2018-05-25T02:57:37.899Z,20.90
2018-05-25T02:58:37.895Z,20.60
2018-05-25T02:59:37.890Z,20.70
2018-05-25T03:00:37.883Z,20.20
2018-05-25T03:01:37.878Z,20.80
2018-05-25T03:02:37.869Z,20.10
2018-05-25T03:03:37.866Z,20.80
2018-05-25T03:04:37.863Z,20.40
2018-05-25T03:05:37.857Z,21.00
2018-05-25T03:06:37.856Z,21.20
2018-05-25T03:07:37.849Z,22.10
2018-05-25T03:08:37.858Z,22.30
2018-05-25T03:09:37.835Z,21.40
2018-05-25T03:10:37.859Z,21.70
2018-05-25T03:11:37.862Z,21.10
2018-05-25T03:12:37.847Z,21.70
2018-05-25T03:13:37.825Z,22.30
2018-05-25T03:14:37.809Z,22.10
2018-05-25T03:15:37.802Z,22.40
2018-05-25T03:16:37.797Z,21.50
2018-05-25T03:17:37.802Z,21.50
2018-05-25T03:18:37.795Z,21.50
2018-05-25T03:19:37.787Z,22.30
2018-05-25T03:20:37.783Z,22.30
2018-05-25T03:21:37.774Z,21.70
2018-05-25T03:22:37.767Z,22.10
2018-05-25T03:23:37.765Z,22.20
2018-05-25T03:24:37.755Z,22.00
2018-05-25T03:25:37.756Z,21.70
2018-05-25T03:26:37.750Z,22.50
2018-05-25T03:27:37.745Z,21.70
2018-05-25T03:28:37.741Z,22.40
2018-05-25T03:29:37.731Z,22.50
2018-05-25T03:30:37.723Z,22.90
2018-05-25T03:31:37.720Z,21.70
2018-05-25T03:32:37.713Z,22.90
2018-05-25T03:33:37.715Z,21.70
2018-05-25T03:34:37.708Z,22.50
2018-05-25T03:35:37.706Z,21.90
2018-05-25T03:36:37.696Z,21.70
2018-05-25T03:37:37.688Z,20.90
2018-05-25T03:38:37.682Z,21.70
2018-05-25T03:39:37.679Z,22.90
2018-05-25T03:40:37.677Z,21.50
2018-05-25T03:41:37.670Z,22.80
2018-05-25T03:42:37.664Z,21.90
2018-05-25T03:43:37.656Z,22.20
2018-05-25T03:44:37.653Z,22.90
2018-05-25T03:45:37.650Z,22.10
2018-05-25T03:46:37.639Z,22.20
2018-05-25T03:47:37.642Z,21.60
2018-05-25T03:48:37.640Z,22.50
2018-05-25T03:49:37.635Z,21.30
2018-05-25T03:50:37.622Z,21.90
2018-05-25T03:51:37.619Z,21.00
2018-05-25T03:52:37.612Z,21.60
2018-05-25T03:53:37.609Z,21.30
2018-05-25T03:54:37.598Z,21.40
2018-05-25T03:55:37.596Z,21.90
2018-05-25T03:56:39.151Z,21.90
2018-05-25T03:57:37.593Z,22.80
2018-05-25T03:58:37.576Z,21.40
2018-05-25T03:59:37.577Z,21.70
2018-05-25T04:00:37.569Z,21.00
2018-05-25T04:01:37.592Z,21.00
2018-05-25T04:02:37.559Z,21.60
2018-05-25T04:03:37.551Z,21.40
2018-05-25T04:04:37.549Z,21.40
2018-05-25T04:05:37.543Z,21.70
2018-05-25T04:06:37.534Z,20.80
2018-05-25T04:07:37.533Z,21.20
2018-05-25T04:08:37.528Z,20.00
2018-05-25T04:09:37.525Z,20.40
2018-05-25T04:10:37.523Z,20.50
2018-05-25T04:11:37.513Z,20.20
2018-05-25T04:12:37.504Z,20.50
2018-05-25T04:13:37.500Z,20.30
2018-05-25T04:14:37.493Z,21.20
2018-05-25T04:15:37.508Z,21.10
2018-05-25T04:16:37.497Z,21.40
2018-05-25T04:17:37.484Z,20.70
2018-05-25T04:18:37.479Z,20.70
2018-05-25T04:19:37.472Z,21.80
2018-05-25T04:20:37.463Z,20.90
2018-05-25T04:21:37.462Z,21.30
2018-05-25T04:22:37.457Z,21.20
2018-05-25T04:23:37.456Z,21.60
2018-05-25T04:24:37.446Z,21.30
2018-05-25T04:25:37.438Z,21.60
2018-05-25T04:26:37.434Z,22.20
2018-05-25T04:27:37.433Z,21.90
2018-05-25T04:28:37.424Z,21.20
2018-05-25T04:29:37.422Z,22.60
2018-05-25T04:30:37.420Z,24.40
2018-05-25T04:31:37.410Z,26.40
2018-05-25T04:32:37.401Z,73.20
2018-05-25T04:33:37.407Z,89.90
2018-05-25T04:34:37.393Z,78.90
2018-05-25T04:35:37.412Z,75.50
2018-05-25T04:36:37.383Z,66.70
2018-05-25T04:37:37.380Z,59.30
2018-05-25T04:38:37.375Z,54.00
2018-05-25T04:39:37.387Z,48.00
2018-05-25T04:40:37.363Z,40.90
2018-05-25T04:41:37.357Z,39.50
2018-05-25T04:42:37.355Z,37.90
2018-05-25T04:43:37.357Z,40.60
2018-05-25T04:44:37.347Z,34.00
2018-05-25T04:45:37.340Z,30.80
2018-05-25T04:46:37.331Z,27.60
2018-05-25T04:47:37.326Z,22.40
2018-05-25T04:48:37.325Z,23.40
2018-05-25T04:49:37.319Z,21.60
2018-05-25T04:50:37.321Z,22.30
2018-05-25T04:51:37.310Z,21.00
2018-05-25T04:52:37.306Z,21.20
2018-05-25T04:53:37.300Z,22.10
2018-05-25T04:54:37.292Z,21.10
2018-05-25T04:55:37.294Z,20.30
2018-05-25T04:56:37.281Z,20.00
2018-05-25T04:57:37.278Z,20.70
2018-05-25T04:58:37.275Z,19.80
2018-05-25T04:59:37.276Z,20.00
2018-05-25T05:00:37.269Z,19.90
2018-05-25T05:01:37.258Z,19.70
2018-05-25T05:02:37.253Z,19.60
2018-05-25T05:03:37.248Z,20.40
2018-05-25T05:04:37.248Z,19.20
2018-05-25T05:05:37.243Z,19.30
2018-05-25T05:06:37.237Z,19.70
2018-05-25T05:07:37.231Z,18.80
2018-05-25T05:08:37.230Z,19.60
2018-05-25T05:09:37.220Z,18.60
2018-05-25T05:10:37.215Z,18.70
2018-05-25T05:11:37.213Z,17.90
2018-05-25T05:12:37.206Z,19.10
2018-05-25T05:13:37.203Z,18.40
2018-05-25T05:14:37.203Z,17.40
2018-05-25T05:15:37.190Z,19.20
2018-05-25T05:16:37.184Z,18.20
2018-05-25T05:17:37.187Z,18.60
2018-05-25T05:18:37.179Z,19.10
2018-05-25T05:19:37.172Z,19.00
2018-05-25T05:20:37.165Z,18.80
2018-05-25T05:21:37.163Z,18.10
2018-05-25T05:22:37.165Z,18.70
2018-05-25T05:23:37.150Z,18.40
2018-05-25T05:24:37.144Z,18.80
2018-05-25T05:25:37.149Z,19.20
2018-05-25T05:26:37.138Z,18.60
2018-05-25T05:27:37.135Z,19.60
2018-05-25T05:28:37.125Z,18.50
2018-05-25T05:29:37.130Z,19.90
2018-05-25T05:30:37.126Z,19.80
2018-05-25T05:31:37.121Z,19.90
2018-05-25T05:32:37.121Z,18.30
2018-05-25T05:33:37.124Z,19.60
2018-05-25T05:34:37.110Z,20.00
2018-05-25T05:35:37.097Z,19.20
2018-05-25T05:36:37.093Z,19.50
2018-05-25T05:37:37.088Z,19.00
2018-05-25T05:38:37.080Z,19.90
2018-05-25T05:39:37.077Z,19.50
2018-05-25T05:40:37.073Z,19.10
2018-05-25T05:41:37.069Z,18.90
2018-05-25T05:42:37.055Z,18.80
2018-05-25T05:43:37.055Z,19.00
2018-05-25T05:44:37.050Z,18.40
2018-05-25T05:45:37.060Z,17.90
2018-05-25T05:46:37.052Z,18.40
2018-05-25T05:47:37.039Z,18.80
2018-05-25T05:48:37.075Z,17.70
2018-05-25T05:49:37.027Z,18.00
2018-05-25T05:50:37.022Z,17.80
2018-05-25T05:51:37.018Z,17.50
2018-05-25T05:52:37.014Z,16.90
2018-05-25T05:53:37.011Z,17.70
2018-05-25T05:54:37.006Z,17.90
2018-05-25T05:55:37.017Z,17.20
2018-05-25T05:56:36.998Z,17.60
2018-05-25T05:57:36.996Z,17.80
2018-05-25T05:58:36.987Z,17.40
2018-05-25T05:59:36.980Z,17.50
2018-05-25T06:00:36.980Z,16.40
2018-05-25T06:01:36.975Z,17.00
2018-05-25T06:02:36.971Z,17.50
2018-05-25T06:03:36.969Z,16.90
2018-05-25T06:04:36.957Z,17.20
2018-05-25T06:05:36.955Z,16.40
2018-05-25T06:06:36.955Z,17.00
2018-05-25T06:07:36.949Z,17.40
2018-05-25T06:08:36.950Z,16.60
2018-05-25T06:09:36.939Z,17.00
2018-05-25T06:10:36.932Z,16.90
2018-05-25T06:11:36.928Z,16.90
2018-05-25T06:12:36.925Z,16.30
2018-05-25T06:13:36.919Z,17.40
2018-05-25T06:14:36.922Z,16.30
2018-05-25T06:15:36.925Z,16.80
2018-05-25T06:16:36.909Z,16.70
2018-05-25T06:17:36.902Z,16.50
2018-05-25T06:18:36.901Z,16.10
2018-05-25T06:19:36.896Z,16.20
2018-05-25T06:20:36.894Z,16.70
2018-05-25T06:21:36.896Z,16.20
2018-05-25T06:22:36.883Z,16.30
2018-05-25T06:23:36.885Z,15.60
2018-05-25T06:24:36.880Z,16.50
2018-05-25T06:25:36.890Z,15.90
2018-05-25T06:26:36.870Z,15.50
2018-05-25T06:27:36.864Z,16.30
2018-05-25T06:28:36.869Z,16.50
2018-05-25T06:29:36.859Z,16.40
2018-05-25T06:30:36.858Z,16.30
2018-05-25T06:31:36.848Z,15.90
2018-05-25T06:32:36.843Z,16.10
2018-05-25T06:33:36.841Z,15.60
2018-05-25T06:34:36.837Z,16.00
2018-05-25T06:35:36.837Z,15.30
2018-05-25T06:36:36.832Z,15.60
2018-05-25T06:37:36.828Z,15.10
2018-05-25T06:38:36.824Z,15.40
2018-05-25T06:39:36.820Z,16.00
2018-05-25T06:40:36.814Z,15.60
2018-05-25T06:41:36.808Z,15.20
2018-05-25T06:42:36.806Z,14.40
2018-05-25T06:43:36.804Z,15.20
2018-05-25T06:44:36.799Z,14.30
2018-05-25T06:45:36.802Z,14.40
2018-05-25T06:46:36.799Z,14.00
2018-05-25T06:47:36.786Z,14.10
2018-05-25T06:48:36.787Z,14.40
2018-05-25T06:49:36.792Z,13.40
2018-05-25T06:50:36.807Z,14.40
2018-05-25T06:51:36.781Z,13.30
2018-05-25T06:52:36.770Z,14.20
2018-05-25T06:53:36.769Z,13.60
2018-05-25T06:54:36.763Z,14.00
2018-05-25T06:55:36.762Z,13.90
2018-05-25T06:56:36.762Z,14.20
2018-05-25T06:57:36.760Z,13.80
2018-05-25T06:58:36.754Z,13.30
2018-05-25T06:59:36.754Z,12.40
2018-05-25T07:00:36.752Z,13.70
2018-05-25T07:01:36.747Z,13.30
2018-05-25T07:02:36.743Z,13.00
2018-05-25T07:03:37.010Z,12.50
2018-05-25T07:04:36.835Z,12.10
2018-05-25T07:05:36.743Z,12.00
2018-05-25T07:06:36.743Z,12.10
2018-05-25T07:07:36.759Z,12.60
2018-05-25T07:08:36.732Z,12.20
2018-05-25T07:09:36.734Z,12.00
2018-05-25T07:10:36.733Z,11.50
2018-05-25T07:11:36.731Z,11.60
2018-05-25T07:12:36.731Z,11.00
2018-05-25T07:13:36.735Z,11.50
2018-05-25T07:14:36.728Z,11.70
2018-05-25T07:15:36.732Z,11.50
2018-05-25T07:16:36.732Z,12.50
2018-05-25T07:17:36.734Z,11.20
2018-05-25T07:18:36.727Z,12.10
2018-05-25T07:19:36.726Z,11.20
2018-05-25T07:20:36.728Z,11.20
2018-05-25T07:21:37.303Z,11.70
2018-05-25T07:22:36.726Z,11.20
2018-05-25T07:23:36.730Z,11.40
2018-05-25T07:24:36.745Z,11.80
2018-05-25T07:25:36.736Z,11.40
2018-05-25T07:26:36.734Z,10.70
2018-05-25T07:27:36.742Z,11.20
2018-05-25T07:28:36.733Z,10.60
2018-05-25T07:29:36.766Z,10.00
2018-05-25T07:30:36.749Z,10.40
2018-05-25T07:31:36.764Z,10.20
2018-05-25T07:32:36.751Z,10.80
2018-05-25T07:33:36.753Z,10.70
2018-05-25T07:34:36.751Z,10.80
2018-05-25T07:35:36.783Z,10.50
2018-05-25T07:36:36.767Z,10.30
2018-05-25T07:37:36.771Z,10.20
2018-05-25T07:38:36.765Z,10.70
2018-05-25T07:39:36.773Z,10.20
2018-05-25T07:40:36.794Z,10.30
2018-05-25T07:41:36.762Z,10.50
2018-05-25T07:42:36.762Z,10.30
2018-05-25T07:43:36.771Z,10.00
2018-05-25T07:44:36.769Z,10.30
2018-05-25T07:45:36.784Z,10.90
2018-05-25T07:46:36.776Z,11.70
2018-05-25T07:47:36.782Z,11.20
2018-05-25T07:48:36.779Z,11.00
2018-05-25T07:49:36.779Z,10.90
2018-05-25T07:50:36.780Z,11.00
2018-05-25T07:51:36.780Z,11.00
2018-05-25T07:52:36.785Z,10.70
2018-05-25T07:53:36.787Z,10.30
2018-05-25T07:54:36.786Z,10.10
2018-05-25T07:55:36.797Z,10.00
2018-05-25T07:56:36.794Z,10.20
2018-05-25T07:57:36.795Z,10.20
2018-05-25T07:58:36.811Z,10.80
2018-05-25T07:59:36.799Z,11.40
2018-05-25T08:00:36.806Z,9.70
2018-05-25T08:01:36.808Z,10.40
2018-05-25T08:02:36.810Z,10.40
2018-05-25T08:03:36.812Z,10.30
2018-05-25T08:04:36.811Z,11.10
2018-05-25T08:05:36.813Z,9.70
2018-05-25T08:06:36.817Z,10.50
2018-05-25T08:07:36.824Z,10.10
2018-05-25T08:08:36.827Z,10.50
2018-05-25T08:09:36.834Z,10.90
2018-05-25T08:10:36.829Z,9.40
2018-05-25T08:11:36.833Z,10.90
2018-05-25T08:12:36.850Z,11.00
2018-05-25T08:13:36.863Z,10.50
2018-05-25T08:14:36.861Z,10.50
2018-05-25T08:15:36.861Z,10.60
2018-05-25T08:16:36.854Z,10.50
2018-05-25T08:17:36.855Z,10.90
2018-05-25T08:18:36.864Z,10.50
2018-05-25T08:19:36.869Z,10.00
2018-05-25T08:20:36.870Z,10.20
2018-05-25T08:21:36.881Z,10.10
2018-05-25T08:22:36.883Z,10.30
2018-05-25T08:23:36.888Z,10.30
2018-05-25T08:24:36.901Z,10.40
2018-05-25T08:25:36.904Z,9.90
2018-05-25T08:26:36.900Z,10.50
2018-05-25T08:27:36.914Z,10.80
2018-05-25T08:28:36.922Z,10.30
2018-05-25T08:29:36.918Z,9.40
2018-05-25T08:30:36.926Z,10.80
2018-05-25T08:31:36.928Z,9.90
2018-05-25T08:32:36.948Z,10.00
2018-05-25T08:33:36.940Z,10.60
2018-05-25T08:34:36.947Z,10.90
2018-05-25T08:35:36.956Z,10.00
2018-05-25T08:36:36.960Z,10.70
2018-05-25T08:37:36.962Z,10.40
2018-05-25T08:38:36.974Z,10.70
2018-05-25T08:39:36.975Z,9.80
2018-05-25T08:40:36.987Z,9.60
2018-05-25T08:41:36.995Z,10.20
2018-05-25T08:42:36.991Z,8.40
2018-05-25T08:43:37.003Z,10.10
2018-05-25T08:44:37.011Z,9.30
2018-05-25T08:45:37.019Z,9.60
2018-05-25T08:46:37.026Z,9.30
2018-05-25T08:47:37.021Z,9.50
2018-05-25T08:48:37.042Z,8.90
2018-05-25T08:49:37.044Z,9.30
2018-05-25T08:50:37.042Z,9.40
2018-05-25T08:51:37.059Z,9.60
2018-05-25T08:52:37.068Z,9.60
2018-05-25T08:53:37.064Z,9.50
2018-05-25T08:54:37.069Z,8.00
2018-05-25T08:55:37.082Z,8.60
2018-05-25T08:56:37.089Z,9.10
2018-05-25T08:57:37.098Z,8.10
2018-05-25T08:58:37.106Z,8.80
2018-05-25T08:59:37.111Z,8.70
2018-05-25T09:00:37.122Z,8.80
2018-05-25T09:01:37.127Z,8.90
2018-05-25T09:02:37.146Z,8.90
2018-05-25T09:03:37.143Z,8.20
2018-05-25T09:04:37.149Z,8.10
2018-05-25T09:05:37.157Z,8.40
2018-05-25T09:06:37.159Z,9.10
2018-05-25T09:07:37.173Z,7.90
2018-05-25T09:08:37.192Z,9.00
2018-05-25T09:09:37.187Z,8.40
2018-05-25T09:10:37.247Z,9.00
2018-05-25T09:11:37.198Z,8.70
2018-05-25T09:12:37.879Z,8.40
2018-05-25T09:13:37.281Z,8.20
2018-05-25T09:14:37.239Z,9.30
2018-05-25T09:15:37.235Z,8.30
2018-05-25T09:16:37.264Z,8.80
2018-05-25T09:17:37.264Z,9.00
2018-05-25T09:18:37.257Z,8.50
2018-05-25T09:19:37.269Z,9.40
2018-05-25T09:20:37.288Z,9.60
2018-05-25T09:21:37.291Z,8.90
2018-05-25T09:22:37.323Z,9.90
2018-05-25T09:23:37.301Z,8.80
2018-05-25T09:24:37.308Z,9.00
2018-05-25T09:25:37.330Z,9.10
2018-05-25T09:26:37.329Z,9.20
2018-05-25T09:27:37.334Z,8.60
2018-05-25T09:28:37.346Z,7.80
2018-05-25T09:29:37.351Z,9.20
2018-05-25T09:30:37.359Z,8.20
2018-05-25T09:31:37.372Z,8.50
2018-05-25T09:32:37.383Z,8.10
2018-05-25T09:33:37.394Z,7.40
2018-05-25T09:34:37.398Z,7.00
2018-05-25T09:35:37.413Z,8.20
2018-05-25T09:36:37.419Z,9.30
2018-05-25T09:37:37.429Z,8.50
2018-05-25T09:38:37.442Z,8.20
2018-05-25T09:39:37.446Z,8.30
2018-05-25T09:40:37.453Z,9.10
2018-05-25T09:41:37.464Z,7.70
2018-05-25T09:42:37.475Z,7.50
2018-05-25T09:43:37.485Z,7.60
2018-05-25T09:44:37.496Z,7.50
2018-05-25T09:45:37.504Z,7.00
2018-05-25T09:46:37.511Z,7.40
2018-05-25T09:47:37.526Z,7.10
2018-05-25T09:48:37.530Z,7.80
2018-05-25T09:49:37.538Z,8.20
2018-05-25T09:50:37.553Z,7.60
2018-05-25T09:51:37.577Z,8.50
2018-05-25T09:52:37.571Z,7.20
2018-05-25T09:53:37.580Z,8.80
2018-05-25T09:54:37.585Z,8.80
2018-05-25T09:55:37.593Z,7.40
2018-05-25T09:56:37.614Z,7.60
2018-05-25T09:57:37.619Z,7.90
2018-05-25T09:58:37.639Z,7.90
2018-05-25T09:59:37.645Z,7.30
2018-05-25T10:00:37.653Z,7.90
2018-05-25T10:01:37.661Z,8.50
2018-05-25T10:02:37.667Z,8.50
2018-05-25T10:03:37.676Z,8.30
2018-05-25T10:04:37.697Z,7.70
2018-05-25T10:05:37.692Z,7.40
2018-05-25T10:06:37.727Z,7.80
2018-05-25T10:07:37.736Z,7.70
2018-05-25T10:08:37.760Z,6.30
2018-05-25T10:09:37.730Z,7.60
2018-05-25T10:10:37.729Z,7.70
2018-05-25T10:11:37.740Z,7.30
2018-05-25T10:12:37.749Z,7.10
2018-05-25T10:13:37.756Z,7.00
2018-05-25T10:14:37.763Z,6.60
2018-05-25T10:15:37.773Z,7.00
2018-05-25T10:16:37.780Z,6.30
2018-05-25T10:17:37.789Z,7.50
2018-05-25T10:18:37.809Z,7.20
2018-05-25T10:19:37.813Z,7.50
2018-05-25T10:20:37.822Z,7.20
2018-05-25T10:21:37.839Z,8.10
2018-05-25T10:22:37.839Z,7.80
2018-05-25T10:23:37.846Z,7.30
2018-05-25T10:24:37.856Z,6.70
2018-05-25T10:25:37.869Z,6.60
2018-05-25T10:26:37.876Z,7.30
2018-05-25T10:27:37.894Z,7.40
2018-05-25T10:28:37.894Z,6.80
2018-05-25T10:29:37.902Z,6.90
2018-05-25T10:30:37.915Z,7.90
2018-05-25T10:31:37.924Z,7.60
2018-05-25T10:32:37.928Z,7.40
2018-05-25T10:33:37.943Z,7.40
2018-05-25T10:34:37.947Z,7.10
2018-05-25T10:35:37.955Z,6.20
2018-05-25T10:36:37.966Z,6.10
2018-05-25T10:37:37.968Z,5.90
2018-05-25T10:38:37.982Z,6.50
2018-05-25T10:39:37.988Z,6.90
2018-05-25T10:40:38.009Z,5.50
2018-05-25T10:41:37.999Z,6.10
2018-05-25T10:42:38.008Z,6.50
2018-05-25T10:43:38.013Z,7.40
2018-05-25T10:44:38.029Z,6.20
2018-05-25T10:45:38.036Z,5.60
2018-05-25T10:46:38.060Z,5.60
2018-05-25T10:47:38.047Z,5.30
2018-05-25T10:48:38.063Z,5.80
2018-05-25T10:49:38.059Z,6.10
2018-05-25T10:50:38.073Z,5.50
2018-05-25T10:51:38.072Z,7.90
2018-05-25T10:52:38.083Z,8.00
2018-05-25T10:53:38.087Z,7.80
2018-05-25T10:54:38.100Z,8.60
2018-05-25T10:55:38.101Z,8.40
2018-05-25T10:56:38.108Z,9.00
2018-05-25T10:57:38.115Z,9.70
2018-05-25T10:58:38.122Z,8.40
2018-05-25T10:59:38.133Z,8.80
2018-05-25T11:00:38.140Z,9.00
2018-05-25T11:01:38.148Z,8.20
2018-05-25T11:02:38.152Z,7.60
2018-05-25T11:03:38.168Z,9.00
2018-05-25T11:04:38.169Z,9.80
2018-05-25T11:05:38.170Z,9.10
2018-05-25T11:06:38.184Z,9.40
2018-05-25T11:07:38.184Z,7.90
2018-05-25T11:08:38.197Z,8.20
2018-05-25T11:09:38.212Z,8.40
2018-05-25T11:10:38.203Z,7.20
2018-05-25T11:11:38.208Z,8.10
2018-05-25T11:12:38.219Z,7.00
2018-05-25T11:13:38.231Z,8.60
2018-05-25T11:14:38.235Z,8.20
2018-05-25T11:15:38.235Z,7.60
2018-05-25T11:16:38.241Z,9.50
2018-05-25T11:17:38.245Z,9.10
2018-05-25T11:18:38.251Z,9.00
2018-05-25T11:19:38.263Z,8.30
2018-05-25T11:20:38.911Z,7.50
2018-05-25T11:21:38.275Z,7.50
2018-05-25T11:22:38.275Z,7.50
2018-05-25T11:23:38.284Z,6.80
2018-05-25T11:24:38.287Z,6.00
2018-05-25T11:25:38.300Z,5.50
2018-05-25T11:26:38.302Z,6.00
2018-05-25T11:27:38.310Z,5.90
2018-05-25T11:28:38.309Z,6.20
2018-05-25T11:29:38.317Z,5.40
2018-05-25T11:30:38.322Z,6.40
2018-05-25T11:31:38.326Z,7.00
2018-05-25T11:32:38.342Z,6.80
2018-05-25T11:33:38.340Z,6.80
2018-05-25T11:34:38.347Z,6.10
2018-05-25T11:35:38.351Z,6.40
2018-05-25T11:36:38.358Z,6.40
2018-05-25T11:37:38.358Z,7.20
2018-05-25T11:38:38.366Z,6.40
2018-05-25T11:39:38.369Z,6.30
2018-05-25T11:40:38.383Z,7.20
2018-05-25T11:41:38.403Z,6.60
2018-05-25T11:42:38.435Z,6.00
2018-05-25T11:43:38.413Z,6.30
2018-05-25T11:44:38.463Z,7.10
2018-05-25T11:45:38.456Z,6.60
2018-05-25T11:46:38.419Z,6.40
2018-05-25T11:47:38.410Z,6.60
2018-05-25T11:48:38.478Z,6.20
2018-05-25T11:49:38.468Z,5.90
2018-05-25T11:50:38.452Z,5.70
2018-05-25T11:51:38.464Z,5.40
2018-05-25T11:52:38.483Z,5.50
2018-05-25T11:53:38.471Z,6.70
2018-05-25T11:54:38.488Z,5.40
2018-05-25T11:55:38.445Z,5.10
2018-05-25T11:56:38.447Z,5.40
2018-05-25T11:57:38.454Z,5.10
2018-05-25T11:58:38.459Z,6.00
2018-05-25T11:59:38.480Z,5.60
2018-05-25T12:00:38.467Z,6.40
2018-05-25T12:01:38.470Z,5.30
2018-05-25T12:02:38.470Z,5.30
2018-05-25T12:03:38.474Z,6.10
2018-05-25T12:04:38.481Z,7.00
2018-05-25T12:05:38.483Z,6.70
2018-05-25T12:06:38.525Z,7.10
2018-05-25T12:07:38.493Z,7.10
2018-05-25T12:08:38.496Z,7.00
2018-05-25T12:09:38.500Z,7.10
2018-05-25T12:10:38.499Z,7.10
2018-05-25T12:11:38.504Z,7.40
2018-05-25T12:12:38.503Z,6.60
2018-05-25T12:13:38.511Z,6.40
2018-05-25T12:14:38.515Z,6.30
2018-05-25T12:15:38.519Z,5.50
2018-05-25T12:16:38.520Z,5.70
2018-05-25T12:17:38.518Z,5.60
2018-05-25T12:18:38.524Z,5.40
2018-05-25T12:19:38.524Z,5.80
2018-05-25T12:20:38.529Z,6.20
2018-05-25T12:21:38.534Z,5.50
2018-05-25T12:22:38.535Z,6.00
2018-05-25T12:23:38.540Z,6.10
2018-05-25T12:24:38.539Z,6.30
2018-05-25T12:25:38.545Z,10.10
2018-05-25T12:26:38.545Z,16.80
2018-05-25T12:27:38.550Z,15.90
2018-05-25T12:28:38.554Z,10.70
2018-05-25T12:29:38.561Z,9.30
2018-05-25T12:30:38.566Z,7.70
2018-05-25T12:31:38.567Z,7.20
2018-05-25T12:32:38.573Z,10.20
2018-05-25T12:33:38.574Z,6.60
2018-05-25T12:34:38.581Z,6.70
2018-05-25T12:35:38.583Z,8.20
2018-05-25T12:36:38.596Z,6.10
2018-05-25T12:37:38.589Z,6.00
2018-05-25T12:38:38.593Z,7.60
2018-05-25T12:39:38.595Z,7.40
2018-05-25T12:40:38.597Z,9.40
2018-05-25T12:41:38.602Z,8.80
2018-05-25T12:42:38.636Z,6.30
2018-05-25T12:43:38.612Z,6.00
2018-05-25T12:44:38.615Z,8.30
2018-05-25T12:45:38.619Z,6.20
2018-05-25T12:46:38.638Z,6.40
2018-05-25T12:47:38.629Z,5.70
2018-05-25T12:48:38.632Z,5.80
2018-05-25T12:49:38.636Z,5.70
2018-05-25T12:50:38.640Z,5.30
2018-05-25T12:51:38.649Z,5.60
2018-05-25T12:52:38.649Z,5.80
2018-05-25T12:53:38.658Z,4.90
2018-05-25T12:54:38.677Z,7.90
2018-05-25T12:55:38.671Z,5.60
2018-05-25T12:56:38.721Z,5.00
2018-05-25T12:57:38.675Z,4.70
2018-05-25T12:58:38.678Z,5.20
2018-05-25T12:59:38.686Z,5.70
2018-05-25T13:00:38.695Z,5.40
2018-05-25T13:01:38.695Z,6.50